sensor_id;sensor_type;location;lat;lon;timestamp;pressure;altitude;pressure_sealevel;temperature;humidity
17254;BME280;32542;52.832;13.816;2023-06-10T00:02:34;101610.56;;;23.81;45.00
17254;BME280;32542;52.832;13.816;2023-06-10T00:05:38;101608.69;;;23.83;44.93
17254;BME280;32542;52.832;13.816;2023-06-10T00:08:41;101602.56;;;23.81;44.67
17254;BME280;32542;52.832;13.816;2023-06-10T00:11:44;101608.78;;;23.81;44.93
17254;BME280;32542;52.832;13.816;2023-06-10T00:14:47;101607.81;;;23.82;44.90
17254;BME280;32542;52.832;13.816;2023-06-10T00:17:53;101607.75;;;23.84;44.58
17254;BME280;32542;52.832;13.816;2023-06-10T00:20:56;101606.94;;;23.82;44.61
17254;BME280;32542;52.832;13.816;2023-06-10T00:24:06;101603.25;;;23.84;44.82
17254;BME280;32542;52.832;13.816;2023-06-10T00:27:13;101606.94;;;23.82;44.59
17254;BME280;32542;52.832;13.816;2023-06-10T00:30:16;101608.81;;;23.80;44.68
17254;BME280;32542;52.832;13.816;2023-06-10T00:33:21;101603.47;;;23.80;44.80
17254;BME280;32542;52.832;13.816;2023-06-10T00:36:24;101602.63;;;23.79;44.76
17254;BME280;32542;52.832;13.816;2023-06-10T00:39:27;101606.09;;;23.81;44.85
17254;BME280;32542;52.832;13.816;2023-06-10T00:42:30;101604.34;;;23.80;44.63
17254;BME280;32542;52.832;13.816;2023-06-10T00:45:33;101596.41;;;23.79;44.80
17254;BME280;32542;52.832;13.816;2023-06-10T00:48:37;101592.06;;;23.76;44.85
17254;BME280;32542;52.832;13.816;2023-06-10T00:51:40;101597.41;;;23.76;44.91
17254;BME280;32542;52.832;13.816;2023-06-10T00:54:44;101596.41;;;23.79;44.54
17254;BME280;32542;52.832;13.816;2023-06-10T00:57:49;101599.13;;;23.77;44.72
17254;BME280;32542;52.832;13.816;2023-06-10T01:00:53;101598.28;;;23.77;44.61
17254;BME280;32542;52.832;13.816;2023-06-10T01:03:58;101597.41;;;23.76;44.73
17254;BME280;32542;52.832;13.816;2023-06-10T01:07:05;101611.59;;;23.78;44.45
17254;BME280;32542;52.832;13.816;2023-06-10T01:10:17;101609.00;;;23.77;44.91
17254;BME280;32542;52.832;13.816;2023-06-10T01:13:23;101606.38;;;23.75;44.56
17254;BME280;32542;52.832;13.816;2023-06-10T01:16:32;101601.00;;;23.75;44.54
17254;BME280;32542;52.832;13.816;2023-06-10T01:19:39;101610.78;;;23.76;44.48
17254;BME280;32542;52.832;13.816;2023-06-10T01:22:43;101608.03;;;23.78;44.75
17254;BME280;32542;52.832;13.816;2023-06-10T01:25:51;101612.50;;;23.77;44.61
17254;BME280;32542;52.832;13.816;2023-06-10T01:28:59;101610.91;;;23.73;44.75
17254;BME280;32542;52.832;13.816;2023-06-10T01:32:07;101610.13;;;23.71;44.91
17254;BME280;32542;52.832;13.816;2023-06-10T01:35:13;101623.38;;;23.74;44.58
17254;BME280;32542;52.832;13.816;2023-06-10T01:38:19;101618.16;;;23.71;44.71
17254;BME280;32542;52.832;13.816;2023-06-10T01:41:23;101620.81;;;23.71;44.50
17254;BME280;32542;52.832;13.816;2023-06-10T01:44:26;101623.44;;;23.73;44.74
17254;BME280;32542;52.832;13.816;2023-06-10T01:47:29;101618.16;;;23.71;44.73
17254;BME280;32542;52.832;13.816;2023-06-10T01:50:34;101620.03;;;23.69;44.50
17254;BME280;32542;52.832;13.816;2023-06-10T01:53:40;101619.97;;;23.71;44.59
17254;BME280;32542;52.832;13.816;2023-06-10T01:56:42;101619.97;;;23.71;44.65
17254;BME280;32542;52.832;13.816;2023-06-10T01:59:45;101622.56;;;23.72;44.55
17254;BME280;32542;52.832;13.816;2023-06-10T02:02:49;101629.50;;;23.76;44.40
17254;BME280;32542;52.832;13.816;2023-06-10T02:05:52;101620.69;;;23.74;44.74
17254;BME280;32542;52.832;13.816;2023-06-10T02:08:56;101624.28;;;23.73;44.59
17254;BME280;32542;52.832;13.816;2023-06-10T02:12:02;101625.25;;;23.72;44.62
17254;BME280;32542;52.832;13.816;2023-06-10T02:15:05;101633.28;;;23.72;44.65
17254;BME280;32542;52.832;13.816;2023-06-10T02:18:08;101628.84;;;23.71;44.39
17254;BME280;32542;52.832;13.816;2023-06-10T02:21:13;101624.38;;;23.72;44.59
17254;BME280;32542;52.832;13.816;2023-06-10T02:24:18;101630.72;;;23.69;44.40
17254;BME280;32542;52.832;13.816;2023-06-10T02:27:21;101627.22;;;23.69;44.44
17254;BME280;32542;52.832;13.816;2023-06-10T02:30:24;101639.53;;;23.71;44.34
17254;BME280;32542;52.832;13.816;2023-06-10T02:33:27;101638.63;;;23.72;44.65
17254;BME280;32542;52.832;13.816;2023-06-10T02:36:29;101632.41;;;23.72;44.36
17254;BME280;32542;52.832;13.816;2023-06-10T02:39:34;101637.75;;;23.72;44.68
17254;BME280;32542;52.832;13.816;2023-06-10T02:42:41;101635.16;;;23.70;44.61
17254;BME280;32542;52.832;13.816;2023-06-10T02:45:44;101633.34;;;23.71;44.38
17254;BME280;32542;52.832;13.816;2023-06-10T02:48:49;101628.84;;;23.71;44.57
17254;BME280;32542;52.832;13.816;2023-06-10T02:51:56;101628.84;;;23.71;44.50
17254;BME280;32542;52.832;13.816;2023-06-10T02:55:01;101635.16;;;23.70;44.42
17254;BME280;32542;52.832;13.816;2023-06-10T02:58:05;101628.06;;;23.69;44.74
17254;BME280;32542;52.832;13.816;2023-06-10T03:01:08;101631.72;;;23.67;44.76
17254;BME280;32542;52.832;13.816;2023-06-10T03:04:21;101632.47;;;23.70;44.51
17254;BME280;32542;52.832;13.816;2023-06-10T03:07:33;101634.16;;;23.73;44.45
17254;BME280;32542;52.832;13.816;2023-06-10T03:10:38;101636.81;;;23.73;44.64
17254;BME280;32542;52.832;13.816;2023-06-10T03:13:42;101635.06;;;23.72;44.59
17254;BME280;32542;52.832;13.816;2023-06-10T03:16:48;101634.19;;;23.71;44.59
17254;BME280;32542;52.832;13.816;2023-06-10T03:19:52;101642.22;;;23.71;44.68
17254;BME280;32542;52.832;13.816;2023-06-10T03:22:54;101635.16;;;23.70;44.69
17254;BME280;32542;52.832;13.816;2023-06-10T03:25:59;101641.38;;;23.71;44.75
17254;BME280;32542;52.832;13.816;2023-06-10T03:29:03;101636.94;;;23.70;44.45
17254;BME280;32542;52.832;13.816;2023-06-10T03:32:07;101630.69;;;23.71;44.65
17254;BME280;32542;52.832;13.816;2023-06-10T03:35:12;101631.53;;;23.71;44.48
17254;BME280;32542;52.832;13.816;2023-06-10T03:38:16;101623.56;;;23.70;44.77
17254;BME280;32542;52.832;13.816;2023-06-10T03:41:21;101633.41;;;23.69;44.75
17254;BME280;32542;52.832;13.816;2023-06-10T03:44:26;101636.06;;;23.69;44.76
17254;BME280;32542;52.832;13.816;2023-06-10T03:47:33;101645.84;;;23.70;44.81
17254;BME280;32542;52.832;13.816;2023-06-10T03:50:38;101652.00;;;23.72;44.40
17254;BME280;32542;52.832;13.816;2023-06-10T03:53:41;101641.28;;;23.72;44.76
17254;BME280;32542;52.832;13.816;2023-06-10T03:56:47;101648.44;;;23.72;44.60
17254;BME280;32542;52.832;13.816;2023-06-10T03:59:50;101649.31;;;23.72;44.65
17254;BME280;32542;52.832;13.816;2023-06-10T04:02:54;101651.31;;;23.67;44.67
17254;BME280;32542;52.832;13.816;2023-06-10T04:06:08;101650.41;;;23.68;44.54
17254;BME280;32542;52.832;13.816;2023-06-10T04:09:11;101647.72;;;23.68;44.65
17254;BME280;32542;52.832;13.816;2023-06-10T04:12:16;101645.94;;;23.69;44.41
17254;BME280;32542;52.832;13.816;2023-06-10T04:15:19;101662.03;;;23.67;44.89
17254;BME280;32542;52.832;13.816;2023-06-10T04:18:23;101663.81;;;23.67;44.79
17254;BME280;32542;52.832;13.816;2023-06-10T04:21:29;101661.97;;;23.69;44.83
17254;BME280;32542;52.832;13.816;2023-06-10T04:24:32;101663.78;;;23.68;44.78
17254;BME280;32542;52.832;13.816;2023-06-10T04:27:36;101662.81;;;23.69;44.74
17254;BME280;32542;52.832;13.816;2023-06-10T04:30:39;101660.16;;;23.69;44.80
17254;BME280;32542;52.832;13.816;2023-06-10T04:33:43;101669.13;;;23.68;44.53
17254;BME280;32542;52.832;13.816;2023-06-10T04:36:47;101667.38;;;23.67;44.91
17254;BME280;32542;52.832;13.816;2023-06-10T04:39:50;101672.72;;;23.67;44.69
17254;BME280;32542;52.832;13.816;2023-06-10T04:42:54;101665.66;;;23.66;44.83
17254;BME280;32542;52.832;13.816;2023-06-10T04:45:58;101665.69;;;23.65;44.95
17254;BME280;32542;52.832;13.816;2023-06-10T04:49:02;101679.06;;;23.65;44.71
17254;BME280;32542;52.832;13.816;2023-06-10T04:52:07;101679.94;;;23.65;44.87
17254;BME280;32542;52.832;13.816;2023-06-10T04:55:13;101686.25;;;23.64;44.95
17254;BME280;32542;52.832;13.816;2023-06-10T04:58:17;101682.69;;;23.64;44.66
17254;BME280;32542;52.832;13.816;2023-06-10T05:01:20;101680.94;;;23.63;45.05
17254;BME280;32542;52.832;13.816;2023-06-10T05:04:23;101685.44;;;23.62;44.63
17254;BME280;32542;52.832;13.816;2023-06-10T05:07:26;101695.28;;;23.62;44.81
17254;BME280;32542;52.832;13.816;2023-06-10T05:10:29;101688.13;;;23.62;44.92
17254;BME280;32542;52.832;13.816;2023-06-10T05:13:34;101696.16;;;23.62;44.91
17254;BME280;32542;52.832;13.816;2023-06-10T05:16:37;101703.22;;;23.63;44.77
17254;BME280;32542;52.832;13.816;2023-06-10T05:19:41;101704.22;;;23.61;44.73
17254;BME280;32542;52.832;13.816;2023-06-10T05:22:44;101698.16;;;23.57;44.88
17254;BME280;32542;52.832;13.816;2023-06-10T05:25:48;101700.81;;;23.57;44.91
17254;BME280;32542;52.832;13.816;2023-06-10T05:28:52;101707.16;;;23.55;45.05
17254;BME280;32542;52.832;13.816;2023-06-10T05:31:55;101710.63;;;23.57;44.81
17254;BME280;32542;52.832;13.816;2023-06-10T05:34:59;101715.00;;;23.59;44.97
17254;BME280;32542;52.832;13.816;2023-06-10T05:38:03;101707.97;;;23.57;45.08
17254;BME280;32542;52.832;13.816;2023-06-10T05:41:05;101709.03;;;23.53;44.88
17254;BME280;32542;52.832;13.816;2023-06-10T05:44:10;101702.78;;;23.54;44.98
17254;BME280;32542;52.832;13.816;2023-06-10T05:47:15;101708.13;;;23.54;44.85
17254;BME280;32542;52.832;13.816;2023-06-10T05:50:17;101706.28;;;23.54;44.65
17254;BME280;32542;52.832;13.816;2023-06-10T05:53:20;101712.59;;;23.53;44.88
17254;BME280;32542;52.832;13.816;2023-06-10T05:56:23;101707.25;;;23.53;45.20
17254;BME280;32542;52.832;13.816;2023-06-10T05:59:28;101708.97;;;23.54;44.88
17254;BME280;32542;52.832;13.816;2023-06-10T06:02:31;101708.84;;;23.57;44.72
17254;BME280;32542;52.832;13.816;2023-06-10T06:05:34;101718.53;;;23.60;44.96
17254;BME280;32542;52.832;13.816;2023-06-10T06:08:39;101718.47;;;23.61;44.73
17254;BME280;32542;52.832;13.816;2023-06-10T06:11:41;101721.94;;;23.63;44.63
17254;BME280;32542;52.832;13.816;2023-06-10T06:14:46;101714.00;;;23.62;44.82
17254;BME280;32542;52.832;13.816;2023-06-10T06:17:50;101719.41;;;23.60;44.85
17254;BME280;32542;52.832;13.816;2023-06-10T06:20:55;101721.25;;;23.58;45.11
17254;BME280;32542;52.832;13.816;2023-06-10T06:23:58;101724.88;;;23.57;44.96
17254;BME280;32542;52.832;13.816;2023-06-10T06:27:02;101733.84;;;23.56;44.97
17254;BME280;32542;52.832;13.816;2023-06-10T06:30:07;101738.34;;;23.56;45.22
17254;BME280;32542;52.832;13.816;2023-06-10T06:33:10;101737.47;;;23.55;45.20
17254;BME280;32542;52.832;13.816;2023-06-10T06:36:13;101742.88;;;23.54;45.02
17254;BME280;32542;52.832;13.816;2023-06-10T06:39:16;101743.69;;;23.56;45.04
17254;BME280;32542;52.832;13.816;2023-06-10T06:42:20;101747.28;;;23.55;45.05
17254;BME280;32542;52.832;13.816;2023-06-10T06:45:45;101749.88;;;23.56;45.18
17254;BME280;32542;52.832;13.816;2023-06-10T06:48:48;101748.00;;;23.58;44.95
17254;BME280;32542;52.832;13.816;2023-06-10T06:51:51;101751.63;;;23.57;45.22
17254;BME280;32542;52.832;13.816;2023-06-10T06:54:54;101765.06;;;23.56;45.11
17254;BME280;32542;52.832;13.816;2023-06-10T06:57:57;101762.31;;;23.57;45.35
17254;BME280;32542;52.832;13.816;2023-06-10T07:01:05;101773.91;;;23.58;45.00
17254;BME280;32542;52.832;13.816;2023-06-10T07:04:08;101772.06;;;23.58;44.93
17254;BME280;32542;52.832;13.816;2023-06-10T07:07:11;101767.69;;;23.57;44.82
17254;BME280;32542;52.832;13.816;2023-06-10T07:10:14;101773.81;;;23.59;44.94
17254;BME280;32542;52.832;13.816;2023-06-10T07:13:17;101773.03;;;23.57;45.16
17254;BME280;32542;52.832;13.816;2023-06-10T07:16:22;101775.78;;;23.56;45.11
17254;BME280;32542;52.832;13.816;2023-06-10T07:19:24;101776.56;;;23.58;45.00
17254;BME280;32542;52.832;13.816;2023-06-10T07:22:27;101787.31;;;23.56;45.42
17254;BME280;32542;52.832;13.816;2023-06-10T07:25:30;101787.28;;;23.58;45.16
17254;BME280;32542;52.832;13.816;2023-06-10T07:28:33;101782.78;;;23.58;45.40
17254;BME280;32542;52.832;13.816;2023-06-10T07:31:37;101782.78;;;23.58;45.37
17254;BME280;32542;52.832;13.816;2023-06-10T07:34:40;101793.47;;;23.58;45.39
17254;BME280;32542;52.832;13.816;2023-06-10T07:37:43;101803.31;;;23.58;45.58
17254;BME280;32542;52.832;13.816;2023-06-10T07:40:48;101794.41;;;23.57;45.24
17254;BME280;32542;52.832;13.816;2023-06-10T07:43:53;101793.53;;;23.57;45.19
17254;BME280;32542;52.832;13.816;2023-06-10T07:46:59;101783.72;;;23.57;45.26
17254;BME280;32542;52.832;13.816;2023-06-10T07:50:02;101789.00;;;23.59;44.98
17254;BME280;32542;52.832;13.816;2023-06-10T07:53:05;101792.53;;;23.59;45.27
17254;BME280;32542;52.832;13.816;2023-06-10T07:56:08;101788.94;;;23.60;45.21
17254;BME280;32542;52.832;13.816;2023-06-10T07:59:13;101788.00;;;23.61;45.20
17254;BME280;32542;52.832;13.816;2023-06-10T08:02:17;101779.97;;;23.61;45.21
17254;BME280;32542;52.832;13.816;2023-06-10T08:05:20;101785.25;;;23.63;44.90
17254;BME280;32542;52.832;13.816;2023-06-10T08:08:23;101795.09;;;23.62;45.17
17254;BME280;32542;52.832;13.816;2023-06-10T08:11:26;101793.28;;;23.63;45.29
17254;BME280;32542;52.832;13.816;2023-06-10T08:14:29;101808.47;;;23.62;45.45
17254;BME280;32542;52.832;13.816;2023-06-10T08:17:34;101800.44;;;23.62;45.62
17254;BME280;32542;52.832;13.816;2023-06-10T08:20:37;101792.53;;;23.59;45.89
17254;BME280;32542;52.832;13.816;2023-06-10T08:23:40;101799.66;;;23.60;45.92
17254;BME280;32542;52.832;13.816;2023-06-10T08:26:43;101811.25;;;23.59;45.88
17254;BME280;32542;52.832;13.816;2023-06-10T08:29:46;101814.81;;;23.60;46.14
17254;BME280;32542;52.832;13.816;2023-06-10T08:32:50;101813.00;;;23.60;45.88
17254;BME280;32542;52.832;13.816;2023-06-10T08:35:53;101815.69;;;23.60;45.90
17254;BME280;32542;52.832;13.816;2023-06-10T08:38:56;101808.50;;;23.61;46.17
17254;BME280;32542;52.832;13.816;2023-06-10T08:42:05;101796.03;;;23.61;46.15
17254;BME280;32542;52.832;13.816;2023-06-10T08:45:16;101785.31;;;23.61;46.65
17254;BME280;32542;52.832;13.816;2023-06-10T08:48:21;101807.66;;;23.60;46.68
17254;BME280;32542;52.832;13.816;2023-06-10T08:51:26;101818.38;;;23.60;46.80
17254;BME280;32542;52.832;13.816;2023-06-10T08:54:32;101809.50;;;23.58;46.87
17254;BME280;32542;52.832;13.816;2023-06-10T08:57:36;101826.50;;;23.57;47.35
17254;BME280;32542;52.832;13.816;2023-06-10T09:00:39;101829.19;;;23.57;47.37
17254;BME280;32542;52.832;13.816;2023-06-10T09:03:43;101810.47;;;23.57;47.40
17254;BME280;32542;52.832;13.816;2023-06-10T09:06:49;101815.81;;;23.57;47.66
17254;BME280;32542;52.832;13.816;2023-06-10T09:09:52;101800.66;;;23.58;47.52
17254;BME280;32542;52.832;13.816;2023-06-10T09:12:56;101817.53;;;23.58;47.74
17254;BME280;32542;52.832;13.816;2023-06-10T09:15:59;101815.69;;;23.60;47.68
17254;BME280;32542;52.832;13.816;2023-06-10T09:19:06;101811.19;;;23.61;47.96
17254;BME280;32542;52.832;13.816;2023-06-10T09:22:10;101815.63;;;23.62;48.27
17254;BME280;32542;52.832;13.816;2023-06-10T09:25:13;101823.63;;;23.62;47.99
17254;BME280;32542;52.832;13.816;2023-06-10T09:28:18;101809.38;;;23.61;47.39
17254;BME280;32542;52.832;13.816;2023-06-10T09:31:21;101812.00;;;23.63;47.31
17254;BME280;32542;52.832;13.816;2023-06-10T09:34:26;101815.53;;;23.63;47.22
17254;BME280;32542;52.832;13.816;2023-06-10T09:37:29;101822.63;;;23.64;47.46
17254;BME280;32542;52.832;13.816;2023-06-10T09:40:32;101817.28;;;23.64;47.33
17254;BME280;32542;52.832;13.816;2023-06-10T09:43:39;101812.75;;;23.66;47.94
17254;BME280;32542;52.832;13.816;2023-06-10T09:46:45;101819.91;;;23.66;47.81
17254;BME280;32542;52.832;13.816;2023-06-10T09:49:49;101814.47;;;23.67;47.44
17254;BME280;32542;52.832;13.816;2023-06-10T09:52:55;101814.47;;;23.67;47.41
17254;BME280;32542;52.832;13.816;2023-06-10T09:55:58;101816.25;;;23.67;47.54
17254;BME280;32542;52.832;13.816;2023-06-10T09:59:01;101813.53;;;23.68;47.55
17254;BME280;32542;52.832;13.816;2023-06-10T10:02:04;101817.94;;;23.69;47.38
17254;BME280;32542;52.832;13.816;2023-06-10T10:05:14;101809.91;;;23.69;47.85
17254;BME280;32542;52.832;13.816;2023-06-10T10:08:17;101811.69;;;23.70;47.69
17254;BME280;32542;52.832;13.816;2023-06-10T10:11:22;101806.31;;;23.70;47.47
17254;BME280;32542;52.832;13.816;2023-06-10T10:14:25;101797.44;;;23.70;48.22
17254;BME280;32542;52.832;13.816;2023-06-10T10:17:30;101808.03;;;23.71;48.14
17254;BME280;32542;52.832;13.816;2023-06-10T10:20:38;101804.44;;;23.72;48.14
17254;BME280;32542;52.832;13.816;2023-06-10T10:23:51;101811.53;;;23.73;48.52
17254;BME280;32542;52.832;13.816;2023-06-10T10:26:58;101813.28;;;23.74;49.43
17254;BME280;32542;52.832;13.816;2023-06-10T10:30:03;101815.88;;;23.76;50.05
17254;BME280;32542;52.832;13.816;2023-06-10T10:33:13;101812.28;;;23.77;51.40
17254;BME280;32542;52.832;13.816;2023-06-10T10:36:21;101811.31;;;23.78;51.67
17254;BME280;32542;52.832;13.816;2023-06-10T10:39:24;101801.50;;;23.78;51.85
17254;BME280;32542;52.832;13.816;2023-06-10T10:42:30;101802.31;;;23.80;52.98
17254;BME280;32542;52.832;13.816;2023-06-10T10:45:33;101804.06;;;23.81;54.00
17254;BME280;32542;52.832;13.816;2023-06-10T10:48:38;101803.03;;;23.84;54.75
17254;BME280;32542;52.832;13.816;2023-06-10T10:51:56;101789.59;;;23.85;54.00
17254;BME280;32542;52.832;13.816;2023-06-10T10:54:59;101793.91;;;23.88;53.23
17254;BME280;32542;52.832;13.816;2023-06-10T10:58:03;101792.09;;;23.90;54.05
17254;BME280;32542;52.832;13.816;2023-06-10T11:01:11;101793.72;;;23.92;54.05
17254;BME280;32542;52.832;13.816;2023-06-10T11:04:17;101787.44;;;23.93;54.24
17254;BME280;32542;52.832;13.816;2023-06-10T11:07:24;101786.38;;;23.97;54.35
17254;BME280;32542;52.832;13.816;2023-06-10T11:10:31;101781.91;;;23.98;53.26
17254;BME280;32542;52.832;13.816;2023-06-10T11:13:34;101783.56;;;24.00;52.82
17254;BME280;32542;52.832;13.816;2023-06-10T11:16:41;101783.41;;;24.03;52.56
17254;BME280;32542;52.832;13.816;2023-06-10T11:19:44;101787.88;;;24.03;52.91
17254;BME280;32542;52.832;13.816;2023-06-10T11:23:02;101784.31;;;24.04;52.98
17254;BME280;32542;52.832;13.816;2023-06-10T11:26:29;101784.25;;;24.06;53.16
17254;BME280;32542;52.832;13.816;2023-06-10T11:29:36;101780.66;;;24.07;52.13
17254;BME280;32542;52.832;13.816;2023-06-10T11:32:41;101779.69;;;24.08;52.79
17254;BME280;32542;52.832;13.816;2023-06-10T11:35:45;101771.66;;;24.08;52.71
17254;BME280;32542;52.832;13.816;2023-06-10T11:38:53;101769.78;;;24.10;52.43
17254;BME280;32542;52.832;13.816;2023-06-10T11:41:56;101766.25;;;24.09;52.19
17254;BME280;32542;52.832;13.816;2023-06-10T11:44:59;101759.06;;;24.10;52.94
17254;BME280;32542;52.832;13.816;2023-06-10T11:48:04;101756.41;;;24.10;52.65
17254;BME280;32542;52.832;13.816;2023-06-10T11:51:07;101751.06;;;24.10;52.40
17254;BME280;32542;52.832;13.816;2023-06-10T11:54:12;101748.31;;;24.11;51.75
17254;BME280;32542;52.832;13.816;2023-06-10T11:57:14;101739.50;;;24.09;51.85
17254;BME280;32542;52.832;13.816;2023-06-10T12:00:18;101746.66;;;24.09;51.87
17254;BME280;32542;52.832;13.816;2023-06-10T12:03:21;101742.22;;;24.08;52.01
17254;BME280;32542;52.832;13.816;2023-06-10T12:06:25;101731.38;;;24.11;52.16
17254;BME280;32542;52.832;13.816;2023-06-10T12:09:29;101731.38;;;24.11;51.73
17254;BME280;32542;52.832;13.816;2023-06-10T12:12:34;101726.91;;;24.11;51.76
17254;BME280;32542;52.832;13.816;2023-06-10T12:15:38;101718.72;;;24.14;51.05
17254;BME280;32542;52.832;13.816;2023-06-10T12:18:43;101731.91;;;24.19;51.13
17254;BME280;32542;52.832;13.816;2023-06-10T12:21:46;101716.63;;;24.21;50.29
17254;BME280;32542;52.832;13.816;2023-06-10T12:24:59;101721.84;;;24.24;50.27
17254;BME280;32542;52.832;13.816;2023-06-10T12:28:03;101716.50;;;24.24;50.14
17254;BME280;32542;52.832;13.816;2023-06-10T12:31:07;101705.63;;;24.27;49.91
17254;BME280;32542;52.832;13.816;2023-06-10T12:34:10;101710.84;;;24.30;49.91
17254;BME280;32542;52.832;13.816;2023-06-10T12:37:13;101708.81;;;24.35;49.70
17254;BME280;32542;52.832;13.816;2023-06-10T12:40:17;101721.25;;;24.36;49.71
17254;BME280;32542;52.832;13.816;2023-06-10T12:43:20;101731.09;;;24.35;49.84
17254;BME280;32542;52.832;13.816;2023-06-10T12:46:23;101741.09;;;24.32;49.92
17254;BME280;32542;52.832;13.816;2023-06-10T12:49:26;101748.47;;;24.27;50.13
17254;BME280;32542;52.832;13.816;2023-06-10T12:52:29;101746.88;;;24.23;50.28
17254;BME280;32542;52.832;13.816;2023-06-10T12:55:34;101745.28;;;24.19;50.45
17254;BME280;32542;52.832;13.816;2023-06-10T12:58:37;101749.03;;;24.15;50.50
17254;BME280;32542;52.832;13.816;2023-06-10T13:01:40;101754.53;;;24.12;50.21
17254;BME280;32542;52.832;13.816;2023-06-10T13:04:43;101749.25;;;24.10;50.24
17254;BME280;32542;52.832;13.816;2023-06-10T13:07:47;101741.31;;;24.09;50.11
17254;BME280;32542;52.832;13.816;2023-06-10T13:10:51;101740.50;;;24.07;49.99
17254;BME280;32542;52.832;13.816;2023-06-10T13:13:54;101736.88;;;24.08;49.57
17254;BME280;32542;52.832;13.816;2023-06-10T13:16:57;101730.63;;;24.07;49.76
17254;BME280;32542;52.832;13.816;2023-06-10T13:20:00;101720.81;;;24.08;49.51
17254;BME280;32542;52.832;13.816;2023-06-10T13:23:04;101716.34;;;24.08;49.72
17254;BME280;32542;52.832;13.816;2023-06-10T13:26:08;101697.53;;;24.10;49.73
17254;BME280;32542;52.832;13.816;2023-06-10T13:29:11;101696.69;;;24.09;49.61
17254;BME280;32542;52.832;13.816;2023-06-10T13:32:15;101693.94;;;24.11;49.77
17254;BME280;32542;52.832;13.816;2023-06-10T13:35:18;101693.94;;;24.11;49.47
17254;BME280;32542;52.832;13.816;2023-06-10T13:38:21;101683.22;;;24.11;49.92
17254;BME280;32542;52.832;13.816;2023-06-10T13:41:25;101691.16;;;24.12;49.90
17254;BME280;32542;52.832;13.816;2023-06-10T13:44:30;101684.94;;;24.12;49.48
17254;BME280;32542;52.832;13.816;2023-06-10T13:47:35;101674.22;;;24.12;49.48
17254;BME280;32542;52.832;13.816;2023-06-10T13:50:38;101677.00;;;24.10;49.04
17254;BME280;32542;52.832;13.816;2023-06-10T13:53:41;101668.09;;;24.10;49.15
17254;BME280;32542;52.832;13.816;2023-06-10T13:56:45;101667.00;;;24.14;49.61
17254;BME280;32542;52.832;13.816;2023-06-10T13:59:48;101664.06;;;24.20;50.27
17254;BME280;32542;52.832;13.816;2023-06-10T14:02:51;101664.69;;;24.25;50.24
17254;BME280;32542;52.832;13.816;2023-06-10T14:05:54;101663.59;;;24.29;49.89
17254;BME280;32542;52.832;13.816;2023-06-10T14:08:57;101664.31;;;24.32;49.45
17254;BME280;32542;52.832;13.816;2023-06-10T14:12:01;101662.50;;;24.33;48.87
17254;BME280;32542;52.832;13.816;2023-06-10T14:15:05;101663.44;;;24.32;48.92
17254;BME280;32542;52.832;13.816;2023-06-10T14:18:09;101660.59;;;24.35;49.23
17254;BME280;32542;52.832;13.816;2023-06-10T14:21:12;101659.53;;;24.39;48.13
17254;BME280;32542;52.832;13.816;2023-06-10T14:24:15;101655.81;;;24.41;48.09
17254;BME280;32542;52.832;13.816;2023-06-10T14:27:19;101658.44;;;24.43;48.04
17254;BME280;32542;52.832;13.816;2023-06-10T14:30:22;101646.00;;;24.42;47.81
17254;BME280;32542;52.832;13.816;2023-06-10T14:33:25;101643.97;;;24.47;47.15
17254;BME280;32542;52.832;13.816;2023-06-10T14:36:28;101651.81;;;24.50;47.31
17254;BME280;32542;52.832;13.816;2023-06-10T14:39:31;101649.94;;;24.52;47.41
17254;BME280;32542;52.832;13.816;2023-06-10T14:42:36;101655.31;;;24.52;47.62
17254;BME280;32542;52.832;13.816;2023-06-10T14:45:39;101650.91;;;24.51;47.49
17254;BME280;32542;52.832;13.816;2023-06-10T14:48:42;101652.63;;;24.52;47.49
17254;BME280;32542;52.832;13.816;2023-06-10T14:51:45;101645.25;;;24.57;47.12
17254;BME280;32542;52.832;13.816;2023-06-10T14:54:51;101646.81;;;24.61;46.40
17254;BME280;32542;52.832;13.816;2023-06-10T14:57:55;101645.88;;;24.62;46.71
17254;BME280;32542;52.832;13.816;2023-06-10T15:00:59;101643.50;;;24.56;46.99
17254;BME280;32542;52.832;13.816;2023-06-10T15:04:02;101646.47;;;24.50;47.37
17254;BME280;32542;52.832;13.816;2023-06-10T15:07:05;101642.38;;;24.43;47.15
17254;BME280;32542;52.832;13.816;2023-06-10T15:10:08;101646.06;;;24.40;46.66
17254;BME280;32542;52.832;13.816;2023-06-10T15:13:13;101641.81;;;24.36;46.41
17254;BME280;32542;52.832;13.816;2023-06-10T15:16:16;101647.31;;;24.33;46.27
17254;BME280;32542;52.832;13.816;2023-06-10T15:19:19;101641.88;;;24.35;46.38
17254;BME280;32542;52.832;13.816;2023-06-10T15:22:22;101647.00;;;24.39;46.03
17254;BME280;32542;52.832;13.816;2023-06-10T15:25:24;101646.88;;;24.42;46.26
17254;BME280;32542;52.832;13.816;2023-06-10T15:28:34;101644.28;;;24.41;46.39
17254;BME280;32542;52.832;13.816;2023-06-10T15:31:37;101640.72;;;24.40;46.59
17254;BME280;32542;52.832;13.816;2023-06-10T15:34:40;101638.66;;;24.45;46.17
17254;BME280;32542;52.832;13.816;2023-06-10T15:37:43;101636.56;;;24.52;46.39
17254;BME280;32542;52.832;13.816;2023-06-10T15:40:46;101637.84;;;24.62;46.48
17254;BME280;32542;52.832;13.816;2023-06-10T15:43:50;101632.00;;;24.71;45.78
17254;BME280;32542;52.832;13.816;2023-06-10T15:46:53;101635.22;;;24.79;44.96
17254;BME280;32542;52.832;13.816;2023-06-10T15:49:56;101631.50;;;24.82;43.88
17254;BME280;32542;52.832;13.816;2023-06-10T15:52:59;101629.56;;;24.85;42.24